Terminal Aerodrome Forecast
Issued by NWS Grand Forks, ND

Home | Current Version | Previous Version | Graphics & Text | Print | Product List | Glossary On
Versions: 1 2 3 4 5 6 7 8 9 10 11 12 13 14 15 16
000
FTUS43 KFGF 200520
TAFFAR
TAF
KFAR 200520Z 2006/2106 10007KT P6SM BKN200
     FM201800 06011KT P6SM VCSH OVC060
     FM202300 04010KT P6SM VCSH OVC030
     FM210100 02010KT P6SM -SHRA OVC025
     FM210500 01008KT P6SM VCSH OVC015=

USA.gov is the U.S. government's official web portal to all federal, state and local government web resources and services.